Time;durP1;ratioP1;P1;durP2;ratioP2;P2;SDS_P1;SDS_P2;PMS_P1;PMS_P2;Temp;Humidity;BMP_temperature;BMP_pressure;BME280_temperature;BME280_humidity;BME280_pressure;Samples;Min_cycle;Max_cycle;Signal;HPM_P1;HPM_P2
2021/01/22 00:02:00;;;;;;;0.50;0.50;;;17.50;42.10;;;;;;6185225;28;20030;-76
2021/01/22 00:05:02;;;;;;;0.85;0.40;;;17.50;42.10;;;;;;6200962;28;20049;-78
2021/01/22 00:08:03;;;;;;;0.40;0.38;;;17.40;42.00;;;;;;6201244;28;20439;-76
2021/01/22 00:11:05;;;;;;;0.45;0.43;;;17.50;41.90;;;;;;6185116;28;20093;-76
2021/01/22 00:14:06;;;;;;;0.50;0.32;;;17.50;41.90;;;;;;6201562;28;20046;-76
2021/01/22 00:17:06;;;;;;;2.17;0.65;;;17.50;42.00;;;;;;6187837;28;20041;-76
2021/01/22 00:20:08;;;;;;;1.27;0.70;;;17.50;42.10;;;;;;6210534;28;20038;-76
2021/01/22 00:23:09;;;;;;;1.83;0.50;;;17.50;42.20;;;;;;6223040;28;20057;-76
2021/01/22 00:26:10;;;;;;;0.85;0.60;;;17.40;42.50;;;;;;6205716;28;20038;-77
2021/01/22 00:29:11;;;;;;;1.33;0.65;;;17.50;42.80;;;;;;6210899;28;20375;-76
2021/01/22 00:32:12;;;;;;;1.00;0.60;;;17.40;43.10;;;;;;6224317;28;20315;-76
2021/01/22 00:35:13;;;;;;;1.00;0.55;;;17.40;43.20;;;;;;6204227;28;20030;-76
2021/01/22 00:38:14;;;;;;;1.73;0.80;;;17.40;43.40;;;;;;6205383;28;20486;-76
2021/01/22 00:41:15;;;;;;;0.85;0.65;;;17.40;43.50;;;;;;6204358;28;20126;-76
2021/01/22 00:44:17;;;;;;;2.17;0.52;;;17.30;43.60;;;;;;6203753;28;20102;-76
2021/01/22 00:47:18;;;;;;;0.65;0.63;;;17.30;44.00;;;;;;6220038;28;20428;-76
2021/01/22 00:50:19;;;;;;;0.80;0.50;;;17.30;44.00;;;;;;6198828;28;20045;-76
2021/01/22 00:53:20;;;;;;;2.35;0.68;;;17.20;44.20;;;;;;6206437;28;20042;-76
2021/01/22 00:56:21;;;;;;;1.15;0.68;;;17.20;44.30;;;;;;6197930;28;20060;-77
2021/01/22 00:59:29;;;;;;;0.50;0.50;;;17.20;44.70;;;;;;6199169;28;20034;-77
2021/01/22 01:02:30;;;;;;;1.45;0.57;;;17.10;45.00;;;;;;6212869;28;20727;-77
2021/01/22 01:05:31;;;;;;;3.05;0.88;;;17.10;45.10;;;;;;6182426;28;20034;-77
2021/01/22 01:08:32;;;;;;;1.02;0.50;;;17.10;45.30;;;;;;6184734;28;20055;-77
2021/01/22 01:11:42;;;;;;;0.93;0.50;;;17.00;46.00;;;;;;6191622;28;20054;-78
2021/01/22 01:14:49;;;;;;;0.75;0.60;;;16.90;46.80;;;;;;6208939;28;20045;-78
2021/01/22 01:18:00;;;;;;;1.60;0.40;;;16.70;47.70;;;;;;6196450;28;20038;-77
2021/01/22 01:21:01;;;;;;;4.10;0.77;;;16.50;48.30;;;;;;6218070;28;20050;-77
2021/01/22 01:24:02;;;;;;;0.50;0.50;;;16.30;48.80;;;;;;6221442;28;20238;-78
2021/01/22 01:27:03;;;;;;;1.08;0.60;;;16.20;48.90;;;;;;6196615;28;20372;-78
2021/01/22 01:30:06;;;;;;;1.80;0.63;;;16.20;48.70;;;;;;6206379;28;20038;-78
2021/01/22 01:33:07;;;;;;;1.65;0.60;;;16.20;48.70;;;;;;6183992;28;20379;-78
2021/01/22 01:36:09;;;;;;;1.10;0.50;;;16.20;48.90;;;;;;6198677;28;20341;-78
2021/01/22 01:39:10;;;;;;;3.60;0.60;;;16.20;48.90;;;;;;6182471;28;20022;-78
2021/01/22 01:42:11;;;;;;;1.35;0.60;;;16.20;49.10;;;;;;6179420;28;20030;-77
2021/01/22 01:45:13;;;;;;;0.20;0.20;;;16.20;49.60;;;;;;6179600;28;20026;-78
2021/01/22 01:48:15;;;;;;;1.63;0.45;;;16.10;50.60;;;;;;6197246;28;20049;-78
2021/01/22 01:51:16;;;;;;;0.82;0.50;;;15.90;50.60;;;;;;6180559;28;20058;-77
2021/01/22 01:54:19;;;;;;;0.50;0.43;;;15.80;50.70;;;;;;6200883;28;20038;-76
2021/01/22 01:57:20;;;;;;;2.75;1.00;;;15.80;51.20;;;;;;6184380;28;20034;-78
2021/01/22 02:00:22;;;;;;;0.77;0.55;;;15.70;51.20;;;;;;6208884;28;20540;-76
2021/01/22 02:03:26;;;;;;;1.75;0.88;;;15.70;51.20;;;;;;6210276;28;20042;-77
2021/01/22 02:07:08;;;;;;;1.48;0.55;;;15.60;51.30;;;;;;6189687;28;20056;-77
2021/01/22 02:10:10;;;;;;;1.23;0.70;;;15.60;51.60;;;;;;6180724;28;20130;-79
2021/01/22 02:13:12;;;;;;;0.80;0.70;;;15.60;51.60;;;;;;6196977;28;20042;-78
2021/01/22 02:16:15;;;;;;;5.40;0.98;;;15.60;51.60;;;;;;6182283;28;20030;-78
2021/01/22 02:19:21;;;;;;;0.93;0.68;;;15.60;51.50;;;;;;6179956;28;20038;-78
2021/01/22 02:22:22;;;;;;;0.65;0.47;;;15.60;51.20;;;;;;6215024;28;20530;-78
2021/01/22 02:25:32;;;;;;;1.83;0.65;;;15.70;50.80;;;;;;6182461;28;20061;-77
2021/01/22 02:28:33;;;;;;;2.40;0.90;;;15.80;50.40;;;;;;6202465;28;20522;-79
2021/01/22 02:31:39;;;;;;;1.75;0.57;;;15.80;50.20;;;;;;6171764;28;20043;-78
2021/01/22 02:34:42;;;;;;;2.03;0.60;;;15.90;49.90;;;;;;6194844;28;20053;-79
2021/01/22 02:37:49;;;;;;;2.72;0.90;;;16.00;49.60;;;;;;6209366;28;20026;-78
2021/01/22 02:40:56;;;;;;;5.35;1.05;;;16.00;49.30;;;;;;6206191;28;20034;-77
2021/01/22 02:44:00;;;;;;;1.15;0.52;;;16.10;49.10;;;;;;6205573;28;20042;-78
2021/01/22 02:47:06;;;;;;;2.17;0.80;;;16.10;48.90;;;;;;6205199;28;20061;-78
2021/01/22 02:50:08;;;;;;;1.85;0.68;;;16.10;48.80;;;;;;6204630;28;20479;-78
2021/01/22 02:53:08;;;;;;;2.13;0.82;;;16.10;48.90;;;;;;6201940;28;20042;-78
2021/01/22 02:56:19;;;;;;;1.00;0.73;;;16.10;49.10;;;;;;6206338;28;20040;-79
2021/01/22 02:59:26;;;;;;;2.35;1.05;;;16.00;49.50;;;;;;6204793;28;20058;-78
2021/01/22 03:02:46;;;;;;;1.58;0.93;;;15.80;49.60;;;;;;6194357;28;20022;-77
2021/01/22 03:05:48;;;;;;;1.70;1.00;;;15.70;49.60;;;;;;6195684;28;20038;-77
2021/01/22 03:08:54;;;;;;;3.92;0.98;;;15.70;50.00;;;;;;6194230;28;20026;-78
2021/01/22 03:11:58;;;;;;;3.92;1.55;;;15.60;50.30;;;;;;6181090;28;20027;-77
2021/01/22 03:14:59;;;;;;;2.38;1.42;;;15.50;50.50;;;;;;6195840;28;20057;-78
2021/01/22 03:18:10;;;;;;;1.90;1.17;;;15.40;50.60;;;;;;6181029;28;20456;-76
2021/01/22 03:21:11;;;;;;;3.55;1.50;;;15.30;51.00;;;;;;6180695;28;20085;-77
2021/01/22 03:24:12;;;;;;;2.35;1.20;;;15.20;51.40;;;;;;6197120;28;20487;-76
2021/01/22 03:27:13;;;;;;;2.67;1.17;;;15.10;51.70;;;;;;6198537;28;20066;-78
2021/01/22 03:30:15;;;;;;;2.33;1.10;;;15.00;51.80;;;;;;6164493;28;20113;-76
2021/01/22 03:37:38;;;;;;;4.07;1.35;;;14.80;52.60;;;;;;6195481;28;20031;-77
2021/01/22 03:40:39;;;;;;;4.25;1.58;;;14.70;53.40;;;;;;6175565;28;20045;-76
2021/01/22 03:43:40;;;;;;;3.30;1.30;;;14.60;53.80;;;;;;6181143;28;20117;-76
2021/01/22 03:46:41;;;;;;;2.65;1.27;;;14.40;54.10;;;;;;6185519;28;20074;-76
2021/01/22 03:49:42;;;;;;;5.00;1.17;;;14.30;54.80;;;;;;6178435;28;20515;-76
2021/01/22 03:52:43;;;;;;;2.10;1.23;;;14.20;55.30;;;;;;6179773;28;20457;-78
2021/01/22 03:55:45;;;;;;;2.55;1.48;;;14.10;55.90;;;;;;6178181;28;20046;-77
2021/01/22 03:58:46;;;;;;;2.70;1.30;;;13.90;56.20;;;;;;6178677;28;20085;-76
2021/01/22 04:01:47;;;;;;;3.25;1.52;;;13.80;56.70;;;;;;6203751;28;20030;-76
2021/01/22 04:04:48;;;;;;;5.43;1.83;;;13.70;56.80;;;;;;6201399;28;20062;-76
2021/01/22 04:07:49;;;;;;;4.47;2.03;;;13.60;57.20;;;;;;6191657;28;20092;-76
2021/01/22 04:10:50;;;;;;;4.65;1.70;;;13.40;58.00;;;;;;6201197;28;20430;-76
2021/01/22 04:13:51;;;;;;;4.95;1.92;;;13.30;58.00;;;;;;6189336;28;20031;-76
2021/01/22 04:16:58;;;;;;;2.58;1.65;;;13.30;58.20;;;;;;6216715;28;20370;-76
2021/01/22 04:20:00;;;;;;;3.92;1.83;;;13.20;58.00;;;;;;6199663;28;20045;-77
2021/01/22 04:23:01;;;;;;;4.22;2.10;;;13.20;58.30;;;;;;6192862;28;20135;-76
2021/01/22 04:26:02;;;;;;;4.22;2.00;;;13.10;58.40;;;;;;6198389;28;20045;-75
2021/01/22 04:29:03;;;;;;;3.25;1.70;;;13.10;58.40;;;;;;6203500;28;20367;-77
2021/01/22 04:32:06;;;;;;;4.55;2.17;;;13.00;59.00;;;;;;6217935;28;20038;-76
2021/01/22 04:35:12;;;;;;;9.18;2.47;;;12.90;59.10;;;;;;6176417;28;20034;-75
2021/01/22 04:38:13;;;;;;;6.07;1.73;;;12.90;59.40;;;;;;6185134;28;20045;-76
2021/01/22 04:41:15;;;;;;;4.60;1.77;;;12.80;59.50;;;;;;6196278;28;20034;-76
2021/01/22 04:44:16;;;;;;;1.85;1.42;;;12.80;59.90;;;;;;6196788;28;20030;-75
2021/01/22 04:47:18;;;;;;;5.53;1.75;;;12.70;59.90;;;;;;6199946;28;20467;-77
2021/01/22 04:50:19;;;;;;;4.93;2.08;;;12.70;61.10;;;;;;6218979;28;20038;-74
2021/01/22 04:53:26;;;;;;;3.60;1.80;;;12.70;60.40;;;;;;6182686;28;20046;-74
2021/01/22 04:56:29;;;;;;;3.97;1.95;;;12.70;60.40;;;;;;6216527;28;20042;-75
2021/01/22 04:59:50;;;;;;;2.40;1.55;;;12.60;60.80;;;;;;6209207;28;20068;-75
2021/01/22 05:02:54;;;;;;;3.53;1.33;;;12.50;61.00;;;;;;6197804;28;20418;-74
2021/01/22 05:05:58;;;;;;;4.28;1.83;;;12.50;60.90;;;;;;6188761;28;20120;-74
2021/01/22 05:08:59;;;;;;;2.75;1.13;;;12.50;61.00;;;;;;6225645;28;20060;-74
2021/01/22 05:12:00;;;;;;;3.33;1.65;;;12.50;61.00;;;;;;6201687;28;20034;-74
2021/01/22 05:15:26;;;;;;;2.80;1.65;;;12.50;61.00;;;;;;6199776;28;20451;-74
2021/01/22 05:18:30;;;;;;;4.65;1.48;;;12.40;61.00;;;;;;6215430;28;20038;-73
2021/01/22 05:21:39;;;;;;;2.08;1.20;;;12.40;61.10;;;;;;6212729;28;20032;-73
2021/01/22 05:24:40;;;;;;;1.70;1.25;;;12.40;61.30;;;;;;6196386;28;20029;-73
2021/01/22 05:27:52;;;;;;;3.70;1.60;;;12.40;61.30;;;;;;6190255;28;20096;-74
2021/01/22 05:30:56;;;;;;;7.30;1.90;;;12.40;61.30;;;;;;6174342;28;20069;-75
2021/01/22 05:34:00;;;;;;;2.00;1.40;;;12.40;61.20;;;;;;6202603;28;20463;-74
2021/01/22 05:37:04;;;;;;;2.75;1.70;;;12.40;61.00;;;;;;6198022;28;20129;-73
2021/01/22 05:40:13;;;;;;;3.28;2.03;;;12.40;61.00;;;;;;6208322;28;20037;-74
2021/01/22 05:43:14;;;;;;;4.63;1.52;;;12.40;60.90;;;;;;6182452;28;20415;-74
2021/01/22 05:46:27;;;;;;;4.07;1.83;;;12.40;60.80;;;;;;6200005;28;20111;-73
2021/01/22 05:49:28;;;;;;;2.70;1.58;;;12.40;60.80;;;;;;6220678;28;20041;-74
2021/01/22 05:52:29;;;;;;;3.33;1.38;;;12.40;60.80;;;;;;6218148;28;20046;-75
2021/01/22 05:55:32;;;;;;;1.77;1.17;;;12.40;60.80;;;;;;6201556;28;20037;-75
2021/01/22 05:58:34;;;;;;;4.18;1.25;;;12.40;60.80;;;;;;6195485;28;20460;-73
2021/01/22 06:01:35;;;;;;;3.83;1.88;;;12.40;60.80;;;;;;6180135;28;20030;-74
2021/01/22 06:04:36;;;;;;;3.28;1.50;;;12.30;60.70;;;;;;6197466;28;20038;-74
2021/01/22 06:07:39;;;;;;;4.65;2.15;;;12.30;60.70;;;;;;6197972;28;20077;-74
2021/01/22 06:10:40;;;;;;;3.22;1.77;;;12.30;60.40;;;;;;6204055;28;20034;-74
2021/01/22 06:13:48;;;;;;;3.22;1.52;;;12.30;60.30;;;;;;6159046;28;20038;-75
2021/01/22 06:16:52;;;;;;;3.28;1.85;;;12.40;60.20;;;;;;6174431;28;20043;-74
2021/01/22 06:19:53;;;;;;;2.83;1.75;;;12.30;60.00;;;;;;6161603;28;20093;-75
2021/01/22 06:23:13;;;;;;;2.40;1.58;;;12.30;60.00;;;;;;6177973;28;20141;-75
2021/01/22 06:26:15;;;;;;;3.22;1.50;;;12.30;59.90;;;;;;6183868;28;20034;-76
2021/01/22 06:29:17;;;;;;;4.03;1.70;;;12.30;59.90;;;;;;6199214;28;20038;-78
2021/01/22 06:32:19;;;;;;;2.78;1.52;;;12.30;59.90;;;;;;6185183;28;20033;-76
2021/01/22 06:35:22;;;;;;;3.90;1.65;;;12.30;59.90;;;;;;6185063;28;20022;-73
2021/01/22 06:38:23;;;;;;;5.75;1.90;;;12.30;59.90;;;;;;6205436;28;20128;-77
2021/01/22 06:41:27;;;;;;;3.40;1.83;;;12.30;59.80;;;;;;6206474;28;20033;-77
2021/01/22 06:44:28;;;;;;;3.25;1.75;;;12.30;59.70;;;;;;6208399;28;20030;-76
2021/01/22 06:47:29;;;;;;;2.97;1.50;;;12.30;59.80;;;;;;6178591;28;20073;-75
2021/01/22 06:50:30;;;;;;;2.97;1.42;;;12.30;60.60;;;;;;6185503;28;20076;-76
2021/01/22 06:53:31;;;;;;;3.83;1.88;;;12.30;59.80;;;;;;6207089;28;20460;-76
2021/01/22 06:56:35;;;;;;;2.75;1.35;;;12.20;59.70;;;;;;6184528;28;20034;-76
2021/01/22 06:59:37;;;;;;;2.42;1.45;;;12.30;59.80;;;;;;6179480;28;20038;-77
2021/01/22 07:02:40;;;;;;;6.47;1.63;;;12.30;59.70;;;;;;6182244;28;20038;-80
2021/01/22 07:05:43;;;;;;;3.58;1.52;;;12.30;59.60;;;;;;6206870;28;20341;-88
2021/01/22 07:08:51;;;;;;;8.93;1.98;;;12.30;59.50;;;;;;6170753;28;20096;-86
2021/01/22 07:11:55;;;;;;;2.58;1.58;;;12.30;59.60;;;;;;6185629;28;20038;-86
2021/01/22 07:14:56;;;;;;;1.75;1.23;;;12.30;59.50;;;;;;6191576;28;20551;-80
2021/01/22 07:18:01;;;;;;;2.47;1.25;;;12.30;59.40;;;;;;6170674;28;20117;-78
2021/01/22 07:21:37;;;;;;;2.88;1.70;;;12.30;59.50;;;;;;6177779;28;20096;-77
2021/01/22 07:24:38;;;;;;;3.13;1.40;;;12.30;59.40;;;;;;6162784;28;20061;-81
2021/01/22 07:27:46;;;;;;;2.25;1.50;;;12.20;59.40;;;;;;6165555;28;20131;-75
2021/01/22 07:30:48;;;;;;;10.70;1.92;;;12.20;59.40;;;;;;6192590;28;20088;-75
2021/01/22 07:33:49;;;;;;;18.77;2.83;;;12.20;59.40;;;;;;6161199;28;20038;-76
2021/01/22 07:36:51;;;;;;;2.60;1.42;;;12.30;59.40;;;;;;6165115;28;20499;-75
2021/01/22 07:39:53;;;;;;;4.93;1.77;;;12.30;59.40;;;;;;6187223;28;20030;-76
2021/01/22 07:42:54;;;;;;;5.38;1.77;;;12.30;59.30;;;;;;6183016;28;20168;-75
2021/01/22 07:46:12;;;;;;;5.50;1.50;;;12.30;59.30;;;;;;6182245;28;20034;-75
2021/01/22 07:49:13;;;;;;;7.65;2.42;;;12.40;59.30;;;;;;6180879;28;20396;-75
2021/01/22 07:52:14;;;;;;;3.80;1.40;;;12.40;59.20;;;;;;6182079;28;20065;-77
2021/01/22 07:55:23;;;;;;;6.65;2.13;;;12.40;59.20;;;;;;6163932;28;20448;-76
2021/01/22 07:58:24;;;;;;;5.50;2.53;;;12.40;59.20;;;;;;6172141;28;20043;-77
2021/01/22 08:01:25;;;;;;;6.35;2.45;;;12.40;59.30;;;;;;6178772;28;20043;-76
2021/01/22 08:04:27;;;;;;;5.93;2.15;;;12.40;59.30;;;;;;6173473;28;20116;-76
2021/01/22 08:07:38;;;;;;;5.55;2.20;;;12.40;59.20;;;;;;6187892;28;20046;-76
2021/01/22 08:10:39;;;;;;;6.82;3.03;;;12.40;59.10;;;;;;6188365;28;20042;-76
2021/01/22 08:13:43;;;;;;;4.88;2.60;;;12.50;59.10;;;;;;6194555;28;20486;-75
2021/01/22 08:16:45;;;;;;;8.80;2.88;;;12.50;59.00;;;;;;6183624;28;20052;-76
2021/01/22 08:19:48;;;;;;;8.50;3.20;;;12.50;58.90;;;;;;6203285;28;20525;-76
2021/01/22 08:22:53;;;;;;;8.43;4.05;;;12.60;58.80;;;;;;6161460;28;20065;-76
2021/01/22 08:25:58;;;;;;;10.00;4.25;;;12.60;58.80;;;;;;6177870;28;20061;-76
2021/01/22 08:28:59;;;;;;;6.55;3.45;;;12.60;58.70;;;;;;6206715;28;20039;-75
2021/01/22 08:32:03;;;;;;;8.15;3.95;;;12.60;58.60;;;;;;6189738;28;20041;-76
2021/01/22 08:35:06;;;;;;;10.40;2.63;;;12.70;58.60;;;;;;6194313;28;20415;-75
2021/01/22 08:38:11;;;;;;;8.05;2.90;;;12.60;58.50;;;;;;6179473;28;20044;-76
2021/01/22 08:41:25;;;;;;;8.55;2.80;;;12.60;58.60;;;;;;6206394;28;20022;-74
2021/01/22 08:44:26;;;;;;;8.23;2.60;;;12.50;58.80;;;;;;6231045;28;20049;-76
2021/01/22 08:47:30;;;;;;;4.45;2.53;;;12.60;58.80;;;;;;6221920;28;20046;-77
2021/01/22 08:50:31;;;;;;;9.07;3.60;;;12.60;58.80;;;;;;6212746;28;20104;-76
2021/01/22 08:53:33;;;;;;;17.48;4.75;;;12.70;58.70;;;;;;6198164;28;20057;-76
2021/01/22 08:56:34;;;;;;;7.90;2.53;;;12.70;58.60;;;;;;6210769;28;20039;-77
2021/01/22 08:59:49;;;;;;;8.38;2.80;;;12.70;58.50;;;;;;6179867;28;20049;-76
2021/01/22 09:02:50;;;;;;;4.45;2.63;;;12.70;58.40;;;;;;6199394;28;20050;-75
2021/01/22 09:05:51;;;;;;;3.50;1.90;;;12.70;58.50;;;;;;6193649;28;20464;-75
2021/01/22 09:08:54;;;;;;;5.22;2.45;;;12.80;58.50;;;;;;6196319;28;20053;-76
2021/01/22 09:11:55;;;;;;;7.70;1.90;;;12.80;58.30;;;;;;6190609;28;20045;-76
2021/01/22 09:14:59;;;;;;;8.32;2.17;;;12.90;58.10;;;;;;6192231;28;20133;-77
2021/01/22 09:18:00;;;;;;;3.70;1.73;;;12.90;58.00;;;;;;6176142;28;20042;-76
2021/01/22 09:21:06;;;;;;;5.35;2.50;;;13.00;57.90;;;;;;6175632;28;20043;-76
2021/01/22 09:24:07;;;;;;;4.45;1.75;;;13.10;57.60;;;;;;6200320;28;20046;-76
2021/01/22 09:27:08;;;;;;;8.05;1.90;;;13.30;57.40;;;;;;6194102;28;20050;-76
2021/01/22 09:30:14;;;;;;;7.13;2.13;;;13.40;56.90;;;;;;6178280;28;20045;-77
2021/01/22 09:33:16;;;;;;;3.42;1.83;;;13.50;56.70;;;;;;6175588;28;20114;-76
2021/01/22 09:36:18;;;;;;;4.63;2.00;;;13.60;56.50;;;;;;6175874;28;20084;-76
2021/01/22 09:39:19;;;;;;;1.95;1.30;;;13.70;56.30;;;;;;6181486;28;20136;-76
2021/01/22 09:42:20;;;;;;;4.57;1.85;;;13.70;56.00;;;;;;6163676;28;20064;-76
2021/01/22 09:45:21;;;;;;;4.22;1.85;;;13.80;55.80;;;;;;6174212;28;20486;-76
2021/01/22 09:48:23;;;;;;;5.20;2.15;;;13.90;55.70;;;;;;6177899;28;20119;-76
2021/01/22 09:51:23;;;;;;;3.42;1.65;;;14.00;55.50;;;;;;6173961;28;20074;-77
2021/01/22 09:54:24;;;;;;;3.35;1.63;;;14.10;55.40;;;;;;6159488;28;20042;-77
2021/01/22 09:57:25;;;;;;;11.90;6.10;;;14.10;55.10;;;;;;6173489;28;20042;-76
2021/01/22 10:00:26;;;;;;;22.90;10.40;;;14.20;54.70;;;;;;6169886;28;20042;-74
2021/01/22 10:03:27;;;;;;;7.43;3.90;;;14.30;54.70;;;;;;6189476;28;20042;-75
2021/01/22 10:06:28;;;;;;;5.57;2.13;;;14.30;54.50;;;;;;6175606;28;20129;-76
2021/01/22 10:09:30;;;;;;;8.85;2.95;;;14.30;54.10;;;;;;6191119;28;20065;-76
2021/01/22 10:12:31;;;;;;;7.15;2.72;;;14.40;54.00;;;;;;6189085;28;20026;-76
2021/01/22 10:15:32;;;;;;;8.63;3.22;;;14.60;54.10;;;;;;6177867;28;20551;-76
2021/01/22 10:18:33;;;;;;;31.65;12.00;;;14.70;53.90;;;;;;6180189;28;20042;-75
2021/01/22 10:21:34;;;;;;;13.45;5.55;;;14.80;53.60;;;;;;6197000;28;20030;-75
2021/01/22 10:24:35;;;;;;;9.98;4.80;;;15.00;52.70;;;;;;6226938;28;20038;-75
2021/01/22 10:27:36;;;;;;;0.40;0.40;;;15.30;51.80;;;;;;6195507;28;20047;-75
2021/01/22 10:30:37;;;;;;;7.38;1.80;;;15.40;49.00;;;;;;6199829;28;20129;-75
2021/01/22 10:33:39;;;;;;;12.15;4.32;;;15.90;47.30;;;;;;6197480;28;20121;-75
2021/01/22 10:36:40;;;;;;;5.78;1.73;;;16.30;48.00;;;;;;6195179;28;20034;-75
2021/01/22 10:39:41;;;;;;;11.15;4.05;;;16.50;47.60;;;;;;6180852;28;20104;-76
2021/01/22 10:42:42;;;;;;;3.40;1.90;;;16.70;47.50;;;;;;6191729;28;20073;-77
2021/01/22 10:45:43;;;;;;;4.07;1.55;;;16.70;47.50;;;;;;6196202;28;20058;-75
2021/01/22 10:48:45;;;;;;;1.90;0.70;;;16.80;47.70;;;;;;6194078;28;20053;-75
2021/01/22 10:51:46;;;;;;;0.98;0.65;;;16.70;46.50;;;;;;6195317;28;20353;-76
2021/01/22 10:54:48;;;;;;;2.33;0.30;;;16.80;45.00;;;;;;6195745;28;20073;-77
2021/01/22 10:57:49;;;;;;;6.40;0.40;;;17.10;44.10;;;;;;6180038;28;20038;-75
2021/01/22 11:00:52;;;;;;;0.43;0.40;;;17.30;44.10;;;;;;6202199;28;20232;-75
2021/01/22 11:03:54;;;;;;;0.47;0.45;;;17.60;43.60;;;;;;6218243;28;20041;-74
2021/01/22 11:06:55;;;;;;;2.15;0.40;;;17.80;43.10;;;;;;6202617;28;20472;-76
2021/01/22 11:09:55;;;;;;;1.10;0.30;;;18.00;42.60;;;;;;6215012;28;20130;-75
2021/01/22 11:12:56;;;;;;;0.55;0.43;;;18.10;41.70;;;;;;6202129;28;20464;-78
2021/01/22 11:15:57;;;;;;;1.35;0.60;;;18.30;42.20;;;;;;6206722;28;20390;-76
2021/01/22 11:18:59;;;;;;;1.83;0.50;;;18.40;42.30;;;;;;6211661;28;20038;-76
2021/01/22 11:21:59;;;;;;;0.20;0.20;;;18.50;41.60;;;;;;6185700;28;20056;-75
2021/01/22 11:25:01;;;;;;;1.92;0.50;;;18.60;41.10;;;;;;6204753;28;20042;-75
2021/01/22 11:28:03;;;;;;;3.05;0.30;;;18.60;40.90;;;;;;6217539;28;20400;-75
2021/01/22 11:31:04;;;;;;;0.95;0.73;;;18.60;40.50;;;;;;6199228;28;20127;-74
2021/01/22 11:34:05;;;;;;;1.15;0.40;;;18.70;41.00;;;;;;6189891;28;20124;-75
2021/01/22 11:37:06;;;;;;;0.30;0.30;;;18.80;41.50;;;;;;6188276;28;20034;-75
2021/01/22 11:40:08;;;;;;;3.35;0.60;;;18.90;41.10;;;;;;6171445;28;20060;-75
2021/01/22 11:43:09;;;;;;;0.60;0.40;;;19.00;40.90;;;;;;6207852;28;20030;-76
2021/01/22 11:46:11;;;;;;;1.02;0.60;;;19.00;40.70;;;;;;6207555;28;20029;-75
2021/01/22 11:49:12;;;;;;;1.15;0.30;;;19.30;40.60;;;;;;6188062;28;20036;-75
2021/01/22 11:52:13;;;;;;;4.82;0.98;;;19.70;39.50;;;;;;6188517;28;20069;-75
2021/01/22 11:55:15;;;;;;;1.23;0.50;;;19.90;39.00;;;;;;6191386;28;20030;-75
2021/01/22 11:58:17;;;;;;;2.47;0.40;;;20.00;38.90;;;;;;6188758;28;20464;-75
2021/01/22 12:01:18;;;;;;;0.52;0.20;;;20.10;38.40;;;;;;6194018;28;20034;-75
2021/01/22 12:04:19;;;;;;;2.35;0.47;;;20.20;38.60;;;;;;6219628;28;20377;-76
2021/01/22 12:07:20;;;;;;;2.25;0.40;;;20.20;38.30;;;;;;6203688;28;20046;-76
2021/01/22 12:10:21;;;;;;;0.63;0.20;;;20.10;38.30;;;;;;6185435;28;20033;-76
2021/01/22 12:13:21;;;;;;;2.45;0.47;;;20.00;38.50;;;;;;6215153;28;20121;-76
2021/01/22 12:16:22;;;;;;;0.88;0.40;;;20.00;38.80;;;;;;6203074;28;20038;-75
2021/01/22 12:19:24;;;;;;;0.63;0.20;;;19.90;38.90;;;;;;6220139;28;20061;-75
2021/01/22 12:22:26;;;;;;;0.22;0.22;;;19.90;39.00;;;;;;6203276;28;20052;-75
2021/01/22 12:25:27;;;;;;;1.65;0.28;;;19.80;39.00;;;;;;6203707;28;20033;-75
2021/01/22 12:28:28;;;;;;;1.35;0.47;;;19.70;39.30;;;;;;6202075;28;20125;-76
2021/01/22 12:31:28;;;;;;;2.75;0.77;;;19.60;39.50;;;;;;6204212;28;20040;-76
2021/01/22 12:34:31;;;;;;;0.95;0.50;;;19.60;40.00;;;;;;6200168;28;20048;-77
2021/01/22 12:37:31;;;;;;;0.50;0.32;;;19.50;40.20;;;;;;6174362;28;20363;-77
2021/01/22 12:40:32;;;;;;;1.40;0.60;;;19.40;40.50;;;;;;6201072;28;20085;-77
2021/01/22 12:43:34;;;;;;;1.15;0.40;;;19.40;40.90;;;;;;6203720;28;20459;-75
2021/01/22 12:46:34;;;;;;;1.13;0.30;;;19.30;41.10;;;;;;6176102;28;20034;-76
2021/01/22 12:49:38;;;;;;;1.02;0.50;;;19.20;41.30;;;;;;6205056;28;20352;-75
2021/01/22 12:52:38;;;;;;;0.52;0.40;;;19.20;41.20;;;;;;6184920;28;20088;-75
2021/01/22 12:55:45;;;;;;;0.50;0.38;;;19.10;41.00;;;;;;6177539;28;20041;-76
2021/01/22 12:58:46;;;;;;;1.20;0.20;;;19.20;41.10;;;;;;6185158;28;20038;-75
2021/01/22 13:01:47;;;;;;;19.88;9.95;;;19.20;41.10;;;;;;6199871;28;20038;-77
2021/01/22 13:04:48;;;;;;;1.25;0.40;;;19.20;41.40;;;;;;6204848;28;20029;-76
2021/01/22 13:07:49;;;;;;;0.15;0.15;;;19.20;40.90;;;;;;6202861;28;20053;-74
2021/01/22 13:10:50;;;;;;;1.25;0.50;;;19.20;41.10;;;;;;6200904;28;20045;-75
2021/01/22 13:13:51;;;;;;;0.75;0.20;;;19.10;41.50;;;;;;6188933;28;20034;-75
2021/01/22 13:16:52;;;;;;;0.50;0.22;;;19.00;42.10;;;;;;6184609;28;20030;-75
2021/01/22 13:19:53;;;;;;;0.35;0.28;;;18.90;42.70;;;;;;6219139;28;20368;-75
2021/01/22 13:22:54;;;;;;;0.30;0.30;;;18.90;43.60;;;;;;6180875;28;20167;-74
2021/01/22 13:25:55;;;;;;;1.02;0.70;;;18.80;43.90;;;;;;6186554;28;20174;-75
2021/01/22 13:28:56;;;;;;;3.58;0.77;;;18.80;44.40;;;;;;6219845;28;20042;-76
2021/01/22 13:31:57;;;;;;;11.50;4.20;;;18.80;44.60;;;;;;6201832;28;20054;-77
2021/01/22 13:34:59;;;;;;;2.20;1.20;;;18.80;44.70;;;;;;6201357;28;20132;-75
2021/01/22 13:38:00;;;;;;;5.07;1.95;;;18.70;44.70;;;;;;6217159;28;20429;-76
2021/01/22 13:41:01;;;;;;;3.88;1.42;;;18.60;45.50;;;;;;6204241;28;20435;-75
2021/01/22 13:44:02;;;;;;;27.10;2.90;;;18.40;45.50;;;;;;6188173;28;20486;-75
2021/01/22 13:47:04;;;;;;;9.90;3.25;;;18.20;46.20;;;;;;6200309;28;20070;-75
2021/01/22 13:50:06;;;;;;;8.02;2.08;;;17.90;46.90;;;;;;6221499;28;20050;-75
2021/01/22 13:53:07;;;;;;;8.93;1.90;;;17.70;47.40;;;;;;6209849;28;20168;-75
2021/01/22 13:56:09;;;;;;;4.95;1.02;;;17.60;47.90;;;;;;6201347;28;20026;-75
2021/01/22 13:59:10;;;;;;;108.28;8.75;;;17.50;48.10;;;;;;6181840;28;20395;-75
2021/01/22 14:02:11;;;;;;;13.55;1.58;;;17.50;48.20;;;;;;6200861;28;20126;-76
2021/01/22 14:05:13;;;;;;;14.23;2.92;;;17.30;48.50;;;;;;6181413;28;20062;-75
2021/01/22 14:08:14;;;;;;;6.82;2.65;;;17.30;48.70;;;;;;6166683;28;20428;-75
2021/01/22 14:11:15;;;;;;;13.10;4.07;;;17.20;49.10;;;;;;6196792;28;20038;-76
2021/01/22 14:14:15;;;;;;;6.72;1.30;;;17.10;49.40;;;;;;6181635;28;20108;-76
2021/01/22 14:17:16;;;;;;;14.50;5.75;;;16.90;50.40;;;;;;6183783;28;20452;-75
2021/01/22 14:20:17;;;;;;;0.68;0.43;;;16.80;51.50;;;;;;6163091;28;20148;-75
2021/01/22 14:23:20;;;;;;;2.10;0.70;;;16.50;52.90;;;;;;6178815;28;20482;-75
2021/01/22 14:26:22;;;;;;;5.53;0.68;;;16.20;54.40;;;;;;6181682;28;20460;-75
2021/01/22 14:29:23;;;;;;;1.10;0.35;;;16.00;55.10;;;;;;6153227;28;20033;-75
2021/01/22 14:32:24;;;;;;;3.15;0.70;;;15.80;56.10;;;;;;6144214;28;20373;-74
2021/01/22 14:35:25;;;;;;;5.72;2.38;;;15.70;56.80;;;;;;6175208;28;20039;-75
2021/01/22 14:38:26;;;;;;;4.45;2.00;;;15.60;57.00;;;;;;6185006;28;20038;-74
2021/01/22 14:41:27;;;;;;;6.05;0.93;;;15.60;57.30;;;;;;6157908;28;20053;-75
2021/01/22 14:44:28;;;;;;;24.30;13.45;;;15.50;57.50;;;;;;6150611;28;20119;-74
2021/01/22 14:47:29;;;;;;;5.25;0.77;;;15.50;57.60;;;;;;6129606;28;20050;-76
2021/01/22 14:50:30;;;;;;;2.08;0.85;;;15.50;57.50;;;;;;6174708;28;20038;-75
2021/01/22 14:53:31;;;;;;;1.20;0.40;;;15.50;57.50;;;;;;6160664;28;20057;-75
2021/01/22 14:56:32;;;;;;;1.13;0.52;;;15.60;57.30;;;;;;6159004;28;20035;-75
2021/01/22 14:59:34;;;;;;;0.63;0.50;;;15.60;57.10;;;;;;6148646;28;20046;-76
2021/01/22 15:02:35;;;;;;;1.50;0.60;;;15.60;56.80;;;;;;6192226;28;20034;-76
2021/01/22 15:05:36;;;;;;;1.45;0.35;;;15.70;56.40;;;;;;6199120;28;20035;-76
2021/01/22 15:08:38;;;;;;;1.23;0.75;;;15.70;55.80;;;;;;6216148;28;20042;-76
2021/01/22 15:11:40;;;;;;;2.63;0.90;;;15.70;55.30;;;;;;6165513;28;20360;-75
2021/01/22 15:14:41;;;;;;;0.60;0.50;;;15.60;55.10;;;;;;6183911;28;20046;-75
2021/01/22 15:17:42;;;;;;;1.65;0.60;;;15.70;55.00;;;;;;6169691;28;20042;-76
2021/01/22 15:20:43;;;;;;;0.30;0.30;;;15.70;54.80;;;;;;6206504;28;20038;-75
2021/01/22 15:23:45;;;;;;;5.00;1.23;;;15.70;54.60;;;;;;6195681;28;20042;-74
2021/01/22 15:26:46;;;;;;;1.73;0.65;;;15.80;54.40;;;;;;6232066;28;20096;-76
2021/01/22 15:29:46;;;;;;;1.90;1.10;;;15.80;54.40;;;;;;6192770;28;20502;-75
2021/01/22 15:32:48;;;;;;;0.85;0.82;;;15.80;54.10;;;;;;6202688;28;20040;-76
2021/01/22 15:35:49;;;;;;;0.20;0.20;;;15.80;53.90;;;;;;6204993;28;20049;-76
2021/01/22 15:38:50;;;;;;;1.35;0.60;;;15.80;53.90;;;;;;6194917;28;20038;-76
2021/01/22 15:41:51;;;;;;;1.15;0.50;;;15.70;53.90;;;;;;6207181;28;20117;-75
2021/01/22 15:44:52;;;;;;;1.85;0.80;;;15.70;54.30;;;;;;6233532;28;20447;-75
2021/01/22 15:47:53;;;;;;;1.63;1.00;;;15.70;54.70;;;;;;6200690;28;20099;-76
2021/01/22 15:50:54;;;;;;;3.80;0.80;;;15.60;55.40;;;;;;6189471;28;20097;-75
2021/01/22 15:53:55;;;;;;;2.03;0.68;;;15.50;56.80;;;;;;6217691;28;20048;-75